Time;durP1;ratioP1;P1;durP2;ratioP2;P2;SDS_P1;SDS_P2;PMS_P1;PMS_P2;Temp;Humidity;BMP_temperature;BMP_pressure;BME280_temperature;BME280_humidity;BME280_pressure;Samples;Min_cycle;Max_cycle;Signal;HPM_P1;HPM_P2
2022/05/24 00:00:25;;;;;;;11.23;7.30;;;;;;;;;;5054442;28;20481;-65
2022/05/24 00:02:52;;;;;;;13.43;8.07;;;;;;;;;;5072849;28;20048;-65
2022/05/24 00:05:18;;;;;;;13.23;6.95;;;;;;;;;;5054863;28;20490;-65
2022/05/24 00:07:44;;;;;;;12.82;7.50;;;;;;;;;;5072293;28;20076;-65
2022/05/24 00:10:12;;;;;;;10.07;6.45;;;;;;;;;;5054602;28;20040;-65
2022/05/24 00:12:39;;;;;;;7.90;5.50;;;;;;;;;;5073110;28;20044;-65
2022/05/24 00:15:27;;;;;;;9.50;5.35;;;;;;;;;;5071625;28;20036;-65
2022/05/24 00:18:04;;;;;;;8.52;5.40;;;;;;;;;;5072738;28;20098;-65
2022/05/24 00:20:34;;;;;;;11.38;6.30;;;;;;;;;;5054019;28;20028;-65
2022/05/24 00:23:01;;;;;;;7.85;5.13;;;;;;;;;;5072376;28;20060;-65
2022/05/24 00:25:28;;;;;;;9.88;5.10;;;;;;;;;;5054596;28;20048;-65
2022/05/24 00:27:54;;;;;;;9.98;5.45;;;;;;;;;;5053850;28;20045;-65
2022/05/24 00:30:20;;;;;;;8.85;5.30;;;;;;;;;;5054496;28;20478;-65
2022/05/24 00:32:46;;;;;;;13.38;5.88;;;;;;;;;;5054761;28;20044;-65
2022/05/24 00:35:13;;;;;;;9.80;5.45;;;;;;;;;;5071349;28;20408;-65
2022/05/24 00:37:39;;;;;;;9.57;5.95;;;;;;;;;;5054976;28;20461;-65
2022/05/24 00:40:08;;;;;;;10.57;6.20;;;;;;;;;;5072211;28;20032;-65
2022/05/24 00:42:41;;;;;;;9.20;5.72;;;;;;;;;;5071859;28;20036;-65
2022/05/24 00:45:07;;;;;;;10.45;5.53;;;;;;;;;;5071846;28;20032;-65
2022/05/24 00:47:46;;;;;;;10.68;5.35;;;;;;;;;;5072528;28;20044;-65
2022/05/24 00:50:18;;;;;;;13.73;5.82;;;;;;;;;;5053345;28;20489;-65
2022/05/24 00:53:01;;;;;;;7.05;4.97;;;;;;;;;;5054470;28;20048;-65
2022/05/24 00:55:29;;;;;;;10.60;5.07;;;;;;;;;;5071370;28;20048;-65
2022/05/24 00:58:16;;;;;;;11.48;6.18;;;12.80;99.90;;;;;;5053612;28;20481;-65
2022/05/24 01:00:42;;;;;;;9.80;5.55;;;12.30;99.90;;;;;;5054368;28;20047;-64
2022/05/24 01:03:09;;;;;;;9.18;5.30;;;12.50;99.90;;;;;;5070901;28;20397;-64
2022/05/24 01:05:35;;;;;;;10.52;5.78;;;12.40;99.90;;;;;;5072268;28;20040;-64
2022/05/24 01:08:00;;;;;;;12.32;6.80;;;12.80;99.90;;;;;;5071835;28;20042;-64
2022/05/24 01:10:37;;;;;;;9.60;6.47;;;12.80;99.90;;;;;;5071064;28;20071;-64
2022/05/24 01:13:19;;;;;;;14.77;6.50;;;12.60;99.90;;;;;;5053745;28;20056;-65
2022/05/24 01:15:46;;;;;;;10.40;6.30;;;13.20;99.90;;;;;;5054342;28;20093;-65
2022/05/24 01:18:13;;;;;;;9.40;5.65;;;12.50;99.90;;;;;;5071162;28;20033;-65
2022/05/24 01:20:43;;;;;;;10.43;6.57;;;14.50;99.90;;;;;;5054317;28;20036;-64
2022/05/24 01:23:14;;;;;;;13.20;7.03;;;12.90;99.90;;;;;;5071213;28;20402;-64
2022/05/24 01:25:41;;;;;;;9.70;7.03;;;12.60;99.90;;;;;;5072221;28;20080;-65
2022/05/24 01:28:14;;;;;;;12.57;7.40;;;12.20;99.90;;;;;;5053460;28;20059;-65
2022/05/24 01:30:40;;;;;;;11.10;7.20;;;13.70;99.90;;;;;;5053788;28;20389;-64
2022/05/24 01:38:34;;;;;;;11.23;7.70;;;12.70;99.90;;;;;;5053109;28;20147;-64
2022/05/24 01:41:01;;;;;;;11.70;7.13;;;12.80;99.90;;;;;;5053542;28;20111;-64
2022/05/24 01:43:27;;;;;;;12.60;8.02;;;13.30;99.90;;;;;;5071496;28;20063;-64
2022/05/24 01:46:04;;;;;;;10.68;7.93;;;12.50;99.90;;;;;;5070810;28;20051;-64
2022/05/24 01:48:41;;;;;;;11.70;9.07;;;12.80;99.90;;;;;;5054212;28;20049;-64
2022/05/24 01:51:09;;;;;;;13.27;8.43;;;13.20;99.90;;;;;;5071411;28;20051;-65
2022/05/24 01:53:41;;;;;;;12.07;8.48;;;13.20;99.90;;;;;;5070959;28;20137;-64
2022/05/24 01:56:11;;;;;;;13.95;9.65;;;12.60;99.90;;;;;;5053242;28;20040;-64
2022/05/24 01:58:39;;;;;;;15.23;9.27;;;12.80;99.90;;;;;;5052914;28;20036;-65
2022/05/24 02:01:11;;;;;;;12.77;8.15;;;13.00;99.90;;;;;;5036974;28;20149;-65
2022/05/24 02:03:37;;;;;;;14.00;8.75;;;13.20;99.90;;;;;;5071728;28;20032;-64
2022/05/24 02:06:22;;;;;;;13.93;8.57;;;12.80;99.90;;;;;;5070714;28;20058;-64
2022/05/24 02:08:48;;;;;;;14.85;9.60;;;13.10;99.90;;;;;;5072649;28;20040;-64
2022/05/24 02:11:17;;;;;;;14.85;8.63;;;12.90;99.90;;;;;;5074839;28;20149;-64
2022/05/24 02:13:46;;;;;;;17.08;9.75;;;13.70;99.90;;;;;;5039936;28;20131;-64
2022/05/24 02:16:16;;;;;;;15.32;9.25;;;13.20;99.90;;;;;;5057121;28;20439;-64
2022/05/24 02:18:46;;;;;;;13.35;8.60;;;14.90;99.90;;;;;;5075401;28;20032;-64
2022/05/24 02:21:12;;;;;;;14.23;9.77;;;12.70;99.90;;;;;;5073848;28;20119;-64
2022/05/24 02:23:48;;;;;;;14.77;9.75;;;13.20;99.90;;;;;;5074881;28;20453;-64
2022/05/24 02:26:16;;;;;;;14.75;10.40;;;13.10;99.90;;;;;;5056717;28;20084;-64
2022/05/24 02:28:43;;;;;;;14.95;10.85;;;13.40;99.90;;;;;;5056390;28;20080;-64
2022/05/24 02:31:13;;;;;;;16.65;11.52;;;13.20;99.90;;;;;;5074516;28;20119;-64
2022/05/24 02:33:39;;;;;;;18.83;12.82;;;13.10;99.90;;;;;;5074164;28;20082;-64
2022/05/24 02:36:06;;;;;;;19.48;13.57;;;13.40;99.90;;;;;;5074307;28;20517;-64
2022/05/24 02:38:31;;;;;;;21.05;15.07;;;13.20;99.90;;;;;;5057055;28;20440;-64
2022/05/24 02:43:41;;;;;;;22.88;15.23;;;13.50;99.90;;;;;;5074943;28;20044;-64
2022/05/24 02:46:07;;;;;;;24.52;15.45;;;13.60;99.90;;;;;;5073996;28;20119;-64
2022/05/24 02:48:34;;;;;;;28.05;17.85;;;13.00;99.90;;;;;;5055845;28;20056;-64
2022/05/24 02:51:00;;;;;;;33.35;19.55;;;13.20;99.90;;;;;;5056664;28;20497;-64
2022/05/24 02:53:26;;;;;;;30.27;19.63;;;13.40;99.90;;;;;;5074326;28;20134;-64
2022/05/24 02:55:51;;;;;;;31.80;21.05;;;13.30;99.90;;;;;;5055777;28;20037;-64
2022/05/24 02:58:18;;;;;;;34.20;21.38;;;13.50;99.90;;;;;;5056224;28;20497;-65
2022/05/24 03:00:44;;;;;;;32.40;20.40;;;;;;;;;;5056717;28;20044;-64
2022/05/24 03:03:10;;;;;;;32.55;20.23;;;13.90;99.90;;;;;;5072985;28;20055;-65
2022/05/24 03:05:36;;;;;;;29.25;20.55;;;13.30;99.90;;;;;;5056507;28;20036;-65
2022/05/24 03:10:45;;;;;;;33.53;22.20;;;13.40;99.90;;;;;;5055486;28;20052;-65
2022/05/24 03:15:56;;;;;;;29.55;20.25;;;13.20;99.90;;;;;;5073128;28;20401;-64
2022/05/24 03:18:22;;;;;;;29.70;21.25;;;13.60;99.90;;;;;;5055889;28;20079;-64
2022/05/24 03:20:48;;;;;;;31.05;22.45;;;13.70;99.90;;;;;;5073828;28;20470;-65
2022/05/24 03:23:15;;;;;;;31.83;21.42;;;13.70;99.90;;;;;;5038206;28;20105;-65
2022/05/24 03:25:40;;;;;;;31.88;22.17;;;13.50;99.90;;;;;;5056050;28;20516;-65
2022/05/24 03:28:07;;;;;;;35.05;23.60;;;13.70;99.90;;;;;;5055176;28;20041;-65
2022/05/24 03:30:39;;;;;;;32.90;22.40;;;13.30;99.90;;;;;;5073082;28;20049;-65
2022/05/24 03:33:05;;;;;;;29.63;21.23;;;;;;;;;;5039044;28;20046;-65
2022/05/24 03:35:30;;;;;;;27.60;21.25;;;13.20;99.90;;;;;;5073902;28;20043;-66
2022/05/24 03:37:56;;;;;;;29.60;21.30;;;13.10;99.90;;;;;;5072629;28;20032;-65
2022/05/24 03:40:22;;;;;;;27.10;19.08;;;13.70;99.90;;;;;;5055347;28;20047;-65
2022/05/24 03:42:51;;;;;;;28.98;18.38;;;13.50;99.90;;;;;;5055730;28;20093;-65
2022/05/24 03:45:18;;;;;;;22.90;17.15;;;13.50;99.90;;;;;;5054868;28;20032;-65
2022/05/24 03:47:44;;;;;;;20.92;15.65;;;13.20;99.90;;;;;;5055825;28;20485;-65
2022/05/24 03:50:13;;;;;;;22.27;15.90;;;13.40;99.90;;;;;;5072913;28;20070;-65
2022/05/24 03:52:38;;;;;;;24.95;16.67;;;14.90;99.90;;;;;;5054946;28;20469;-65
2022/05/24 03:55:04;;;;;;;19.88;15.40;;;13.50;99.90;;;;;;5073158;28;20089;-65
2022/05/24 04:00:16;;;;;;;18.90;14.05;;;13.70;99.90;;;;;;5054487;28;20053;-65
2022/05/24 04:02:42;;;;;;;21.17;15.88;;;13.20;99.90;;;;;;5055455;28;20131;-65
2022/05/24 04:05:08;;;;;;;17.63;12.38;;;13.00;99.90;;;;;;5071834;28;20150;-65
2022/05/24 04:07:35;;;;;;;18.42;13.05;;;13.20;99.90;;;;;;5073008;28;20051;-65
2022/05/24 04:10:02;;;;;;;20.98;11.25;;;13.10;99.90;;;;;;5072730;28;20123;-65
2022/05/24 04:12:27;;;;;;;18.45;12.18;;;13.00;99.90;;;;;;5054210;28;20426;-65
2022/05/24 04:14:53;;;;;;;14.90;10.57;;;13.30;99.90;;;;;;5072704;28;20165;-65
2022/05/24 04:17:19;;;;;;;15.15;10.07;;;12.80;99.90;;;;;;5072859;28;20044;-65
2022/05/24 04:19:44;;;;;;;13.88;9.95;;;13.40;99.90;;;;;;5054445;28;20119;-65
2022/05/24 04:22:10;;;;;;;17.63;10.07;;;13.40;99.90;;;;;;5054372;28;20044;-65
2022/05/24 04:24:35;;;;;;;14.60;10.98;;;13.70;99.90;;;;;;5072507;28;20469;-65
2022/05/24 04:27:03;;;;;;;17.80;10.05;;;13.30;99.90;;;;;;5054012;28;20048;-65
2022/05/24 04:29:29;;;;;;;13.80;9.00;;;13.10;99.90;;;;;;5038379;28;20044;-65
2022/05/24 04:31:55;;;;;;;15.65;9.35;;;13.40;99.90;;;;;;5071918;28;20043;-65
2022/05/24 04:34:20;;;;;;;15.05;9.63;;;13.00;99.90;;;;;;5053604;28;20543;-65
2022/05/24 04:36:46;;;;;;;13.35;7.75;;;13.40;99.90;;;;;;5072547;28;20111;-65
2022/05/24 04:39:13;;;;;;;14.82;8.18;;;13.20;99.90;;;;;;5054139;28;20405;-65
2022/05/24 04:44:22;;;;;;;15.05;8.43;;;13.10;99.90;;;;;;5072419;28;20448;-65
2022/05/24 04:47:10;;;;;;;13.05;7.60;;;12.80;99.90;;;;;;5054491;28;20040;-65
2022/05/24 04:49:41;;;;;;;10.93;7.28;;;12.80;99.90;;;;;;5071567;28;20066;-65
2022/05/24 04:52:08;;;;;;;12.38;7.72;;;13.20;99.90;;;;;;5054302;28;20455;-65
2022/05/24 04:54:34;;;;;;;13.35;8.43;;;13.50;99.90;;;;;;5053516;28;20048;-65
2022/05/24 04:57:00;;;;;;;10.55;6.85;;;13.10;99.90;;;;;;5054244;28;20046;-65
2022/05/24 04:59:26;;;;;;;13.15;7.50;;;12.80;99.90;;;;;;5072060;28;20040;-65
2022/05/24 05:01:52;;;;;;;12.50;7.13;;;13.00;99.90;;;;;;5071036;28;20032;-65
2022/05/24 05:04:19;;;;;;;15.02;6.45;;;12.90;99.90;;;;;;5072105;28;20193;-65
2022/05/24 05:06:46;;;;;;;14.50;7.53;;;13.10;99.90;;;;;;5037750;28;20037;-65
2022/05/24 05:09:12;;;;;;;11.60;6.72;;;12.80;99.90;;;;;;5052833;28;20044;-65
2022/05/24 05:11:38;;;;;;;11.32;7.15;;;13.30;99.90;;;;;;5072651;28;20040;-65
2022/05/24 05:14:04;;;;;;;11.27;7.20;;;13.10;99.90;;;;;;5053925;28;20043;-65
2022/05/24 05:16:30;;;;;;;12.18;7.88;;;13.50;99.90;;;;;;5053083;28;20548;-65
2022/05/24 05:18:55;;;;;;;11.75;7.28;;;13.00;99.90;;;;;;5071903;28;20163;-65
2022/05/24 05:21:22;;;;;;;16.38;8.10;;;;;;;;;;5053940;28;20504;-65
2022/05/24 05:23:47;;;;;;;14.43;8.93;;;12.90;99.90;;;;;;5053432;28;20379;-65
2022/05/24 05:26:16;;;;;;;12.18;7.82;;;12.90;99.90;;;;;;5071549;28;20051;-65
2022/05/24 05:28:42;;;;;;;13.32;8.27;;;;;;;;;;5072095;28;20045;-65
2022/05/24 05:31:17;;;;;;;15.45;9.00;;;13.00;99.90;;;;;;5035900;28;20044;-64
2022/05/24 05:33:43;;;;;;;13.32;8.55;;;13.50;99.90;;;;;;5053959;28;20059;-65
2022/05/24 05:36:11;;;;;;;12.52;8.48;;;12.90;99.90;;;;;;5053551;28;20048;-65
2022/05/24 05:38:37;;;;;;;14.27;9.20;;;13.80;99.90;;;;;;5071385;28;20124;-65
2022/05/24 05:41:04;;;;;;;14.60;10.15;;;13.00;99.90;;;;;;5071630;28;20076;-65
2022/05/24 05:43:30;;;;;;;14.73;10.07;;;;;;;;;;5053764;28;20520;-65
2022/05/24 05:45:58;;;;;;;16.60;10.80;;;13.00;99.90;;;;;;5057349;28;20055;-66
2022/05/24 05:48:24;;;;;;;14.73;9.82;;;13.50;99.90;;;;;;5057455;28;20519;-66
2022/05/24 05:50:50;;;;;;;16.50;10.52;;;13.20;99.90;;;;;;5074836;28;20423;-66
2022/05/24 05:53:16;;;;;;;19.60;12.32;;;;;;;;;;5075415;28;20123;-65
2022/05/24 05:55:42;;;;;;;15.48;10.85;;;13.50;99.90;;;;;;5058313;28;20040;-66
2022/05/24 05:58:09;;;;;;;19.75;13.07;;;13.80;99.90;;;;;;5056141;28;20443;-66
2022/05/24 06:00:35;;;;;;;16.65;11.18;;;13.80;99.90;;;;;;5075677;28;20363;-66
2022/05/24 06:03:01;;;;;;;20.95;13.57;;;13.80;99.90;;;;;;5075352;28;20040;-66
2022/05/24 06:05:27;;;;;;;20.20;13.77;;;;;;;;;;5074446;28;20039;-66
2022/05/24 06:07:54;;;;;;;20.73;12.57;;;13.80;99.90;;;;;;5075164;28;20488;-66
2022/05/24 06:10:20;;;;;;;18.33;12.80;;;13.40;99.90;;;;;;5075097;28;20037;-67
2022/05/24 06:12:47;;;;;;;19.50;12.75;;;13.50;99.90;;;;;;5074512;28;20039;-66
2022/05/24 06:15:13;;;;;;;17.23;12.23;;;13.90;99.90;;;;;;5056637;28;20519;-66
2022/05/24 06:17:47;;;;;;;17.13;13.57;;;13.60;99.90;;;;;;5057598;28;20107;-67
2022/05/24 06:20:13;;;;;;;24.15;12.00;;;13.90;99.90;;;;;;5056104;28;20051;-66
2022/05/24 06:22:38;;;;;;;23.98;13.30;;;13.00;99.90;;;;;;5075128;28;20388;-67
2022/05/24 06:25:05;;;;;;;21.58;13.35;;;13.70;99.90;;;;;;5057350;28;20120;-66
2022/05/24 06:27:30;;;;;;;19.77;12.68;;;13.80;99.90;;;;;;5074348;28;20045;-66
2022/05/24 06:29:56;;;;;;;17.35;12.45;;;13.90;99.90;;;;;;5057012;28;20401;-66
2022/05/24 06:32:22;;;;;;;23.08;12.63;;;14.00;99.90;;;;;;5074706;28;20041;-66
2022/05/24 06:34:49;;;;;;;20.30;8.75;;;14.00;99.90;;;;;;5039538;28;20040;-66
2022/05/24 06:37:19;;;;;;;13.40;6.80;;;13.80;99.90;;;;;;5074847;28;20041;-66
2022/05/24 06:39:46;;;;;;;11.60;6.07;;;13.90;99.90;;;;;;5074257;28;20073;-66
2022/05/24 06:42:11;;;;;;;12.07;6.15;;;14.10;99.90;;;;;;5074127;28;20127;-66
2022/05/24 06:44:37;;;;;;;12.10;6.97;;;14.20;99.90;;;;;;5072573;28;20120;-66
2022/05/24 06:47:03;;;;;;;9.80;5.78;;;14.10;99.90;;;;;;5047827;28;20404;-66
2022/05/24 06:49:28;;;;;;;7.53;4.07;;;14.00;99.90;;;;;;5073124;28;20499;-66
2022/05/24 06:51:54;;;;;;;9.77;4.72;;;13.70;99.90;;;;;;5075038;28;20037;-66
2022/05/24 06:54:20;;;;;;;7.18;3.67;;;13.80;99.90;;;;;;5055131;28;20106;-66
2022/05/24 06:56:45;;;;;;;7.13;3.72;;;14.00;99.90;;;;;;5074479;28;20068;-66
2022/05/24 07:04:40;;;;;;;10.90;4.47;;;14.10;99.90;;;;;;5056783;28;20132;-66
2022/05/24 07:07:06;;;;;;;7.82;4.70;;;14.00;99.90;;;;;;5055741;28;20119;-66
2022/05/24 07:09:31;;;;;;;8.90;4.30;;;13.90;99.90;;;;;;5055560;28;20036;-66
2022/05/24 07:11:58;;;;;;;8.88;4.95;;;13.60;99.90;;;;;;5056151;28;20048;-66
2022/05/24 07:14:24;;;;;;;11.07;5.25;;;14.20;99.90;;;;;;5073756;28;20044;-66
2022/05/24 07:16:51;;;;;;;9.80;5.32;;;;;;;;;;5040762;28;20536;-66
2022/05/24 07:19:17;;;;;;;11.25;5.10;;;;;;;;;;5052795;28;20509;-66
2022/05/24 07:21:44;;;;;;;10.38;5.28;;;14.60;99.90;;;;;;5071116;28;20048;-66
2022/05/24 07:24:10;;;;;;;10.57;5.53;;;14.20;99.90;;;;;;5069777;28;20061;-66
2022/05/24 07:26:36;;;;;;;9.82;5.40;;;;;;;;;;5052988;28;20058;-66
2022/05/24 07:29:02;;;;;;;10.00;5.65;;;14.40;99.90;;;;;;5049891;28;20493;-65
2022/05/24 07:31:28;;;;;;;10.57;6.15;;;13.80;99.90;;;;;;5070980;28;20124;-65
2022/05/24 07:33:54;;;;;;;9.43;5.68;;;;;;;;;;5053019;28;20483;-64
2022/05/24 07:36:20;;;;;;;10.05;5.60;;;;;;;;;;5052441;28;20045;-64
2022/05/24 07:38:46;;;;;;;10.32;5.55;;;14.20;99.90;;;;;;5070999;28;20047;-64
2022/05/24 07:46:41;;;;;;;10.35;6.05;;;14.40;99.90;;;;;;5047652;28;20048;-64
2022/05/24 07:49:07;;;;;;;9.45;5.85;;;;;;;;;;5052604;28;20106;-64
2022/05/24 07:51:33;;;;;;;11.32;6.10;;;14.60;99.90;;;;;;5069895;28;20045;-64
2022/05/24 07:53:58;;;;;;;10.80;6.38;;;14.50;99.90;;;;;;5052683;28;20467;-64
2022/05/24 07:56:24;;;;;;;14.27;7.13;;;;;;;;;;5052303;28;20152;-64
2022/05/24 07:58:51;;;;;;;11.23;5.30;;;14.50;99.90;;;;;;5051471;28;20443;-65
2022/05/24 08:01:17;;;;;;;9.63;6.05;;;14.70;99.90;;;;;;5070248;28;20477;-65
2022/05/24 08:03:44;;;;;;;9.90;5.40;;;14.60;99.90;;;;;;5070578;28;20452;-66
2022/05/24 08:06:10;;;;;;;14.88;6.03;;;;;;;;;;5050564;28;20147;-65
2022/05/24 08:08:36;;;;;;;11.27;6.22;;;14.60;99.90;;;;;;5052629;28;20401;-65
2022/05/24 08:11:02;;;;;;;10.23;5.65;;;;;;;;;;5052356;28;20048;-66
2022/05/24 08:13:28;;;;;;;13.30;6.05;;;14.80;99.90;;;;;;5067701;28;20343;-66
2022/05/24 08:15:54;;;;;;;7.43;4.47;;;13.80;99.90;;;;;;5069455;28;20082;-66
2022/05/24 08:18:21;;;;;;;12.30;5.53;;;14.70;99.90;;;;;;5066265;28;20082;-65
2022/05/24 08:20:48;;;;;;;9.05;4.00;;;14.50;99.90;;;;;;5070531;28;20454;-67
2022/05/24 08:23:15;;;;;;;8.32;4.60;;;;;;;;;;5051768;28;20056;-66
2022/05/24 08:25:40;;;;;;;11.82;4.78;;;14.20;99.90;;;;;;5059902;28;20087;-65
2022/05/24 08:28:07;;;;;;;8.23;4.60;;;14.50;99.90;;;;;;5032085;28;20079;-65
2022/05/24 08:30:36;;;;;;;8.07;4.30;;;14.50;99.90;;;;;;5050895;28;20131;-66
2022/05/24 08:33:04;;;;;;;8.98;4.50;;;14.60;99.90;;;;;;5050595;28;20044;-65
2022/05/24 08:35:34;;;;;;;7.82;4.15;;;14.70;99.90;;;;;;5051744;28;20119;-66
2022/05/24 08:38:01;;;;;;;7.22;4.10;;;14.90;99.90;;;;;;5063992;28;20037;-65
2022/05/24 08:40:27;;;;;;;7.03;4.38;;;14.60;99.90;;;;;;5057911;28;20428;-65
2022/05/24 08:43:22;;;;;;;8.38;4.70;;;14.30;99.90;;;;;;5050348;28;20048;-65
2022/05/24 08:48:44;;;;;;;9.00;5.30;;;14.20;99.90;;;;;;5051272;28;20044;-67
2022/05/24 08:51:32;;;;;;;13.40;5.37;;;14.10;99.90;;;;;;5068844;28;20036;-66
2022/05/24 08:54:04;;;;;;;9.93;4.93;;;14.00;99.90;;;;;;5040762;28;20090;-66
2022/05/24 08:56:37;;;;;;;8.00;5.57;;;13.90;99.90;;;;;;5049882;28;20049;-65
2022/05/24 08:59:12;;;;;;;11.07;5.22;;;13.50;99.90;;;;;;5048433;28;20094;-65
2022/05/24 09:01:40;;;;;;;6.75;3.60;;;13.00;99.90;;;;;;5061144;28;20041;-65
2022/05/24 09:04:08;;;;;;;9.98;4.03;;;13.40;99.90;;;;;;5050810;28;20125;-65
2022/05/24 09:06:59;;;;;;;9.00;4.03;;;13.00;99.90;;;;;;5065007;28;20051;-65
2022/05/24 09:09:43;;;;;;;5.47;3.28;;;13.30;99.90;;;;;;5048702;28;20091;-65
2022/05/24 09:12:22;;;;;;;5.63;2.80;;;13.30;99.90;;;;;;5061626;28;20127;-65
2022/05/24 09:15:15;;;;;;;6.53;3.17;;;13.30;99.90;;;;;;5051546;28;20148;-66
2022/05/24 09:18:14;;;;;;;8.13;4.03;;;13.80;99.90;;;;;;5058151;28;20040;-66
2022/05/24 09:20:44;;;;;;;7.55;4.88;;;13.70;99.90;;;;;;5023350;28;20056;-66
2022/05/24 09:23:41;;;;;;;7.30;4.20;;;13.40;99.90;;;;;;5046012;28;20059;-66
2022/05/24 09:26:24;;;;;;;8.25;4.95;;;13.50;99.90;;;;;;5063183;28;20041;-66
2022/05/24 09:28:51;;;;;;;9.50;5.70;;;13.60;99.90;;;;;;5062515;28;20046;-65
2022/05/24 09:31:41;;;;;;;13.32;6.55;;;13.70;99.90;;;;;;5051179;28;20736;-66
2022/05/24 09:34:19;;;;;;;11.93;7.47;;;14.10;99.90;;;;;;5024627;28;20098;-65
2022/05/24 09:37:00;;;;;;;10.35;5.82;;;14.30;99.90;;;;;;5049432;28;20132;-66
2022/05/24 09:39:35;;;;;;;8.40;5.32;;;14.20;99.90;;;;;;5060621;28;20045;-66
2022/05/24 09:42:11;;;;;;;8.25;4.32;;;14.30;99.90;;;;;;5057353;28;20064;-65
2022/05/24 09:44:47;;;;;;;8.55;4.45;;;14.60;99.90;;;;;;5020045;28;20373;-65
2022/05/24 09:47:40;;;;;;;7.55;4.55;;;14.40;99.90;;;;;;5052473;28;20123;-65
2022/05/24 09:50:18;;;;;;;8.80;5.00;;;15.20;99.90;;;;;;5022298;28;20060;-65
2022/05/24 09:53:08;;;;;;;8.23;4.47;;;14.80;99.90;;;;;;5051073;28;20044;-65
2022/05/24 09:55:33;;;;;;;7.07;4.53;;;;;;;;;;5034365;28;20056;-65
2022/05/24 09:58:22;;;;;;;6.18;3.92;;;14.70;99.90;;;;;;5050678;28;20037;-65
2022/05/24 10:00:56;;;;;;;9.00;4.68;;;15.10;99.90;;;;;;5034387;28;20044;-64
2022/05/24 10:03:48;;;;;;;9.88;4.53;;;14.80;99.90;;;;;;5046354;28;20045;-65
2022/05/24 10:06:30;;;;;;;8.02;4.00;;;14.80;99.90;;;;;;5049756;28;20424;-65
2022/05/24 10:09:22;;;;;;;8.25;4.22;;;15.10;99.90;;;;;;5050064;28;20055;-65
2022/05/24 10:11:51;;;;;;;12.05;5.57;;;14.70;99.90;;;;;;5055268;28;20084;-64
2022/05/24 10:14:40;;;;;;;11.23;4.53;;;14.80;99.90;;;;;;5049880;28;20137;-62
2022/05/24 10:17:27;;;;;;;6.65;3.30;;;13.80;99.90;;;;;;5049907;28;20128;-63
2022/05/24 10:20:10;;;;;;;6.60;2.97;;;14.10;99.90;;;;;;5068090;28;20052;-63
2022/05/24 10:22:41;;;;;;;7.03;3.00;;;13.70;99.90;;;;;;5067988;28;20463;-63
2022/05/24 10:25:08;;;;;;;4.70;2.30;;;14.20;99.90;;;;;;5048275;28;20425;-64
2022/05/24 10:27:52;;;;;;;5.25;2.47;;;13.50;99.90;;;;;;5068419;28;20448;-64
2022/05/24 10:30:37;;;;;;;6.07;2.20;;;13.90;99.90;;;;;;5050151;28;20044;-64
2022/05/24 10:39:31;;;;;;;5.28;3.13;;;14.20;99.90;;;;;;5070831;28;20044;-66
2022/05/24 10:42:23;;;;;;;6.28;3.30;;;13.50;99.90;;;;;;5048854;28;20489;-64
2022/05/24 10:45:16;;;;;;;8.27;3.60;;;14.20;99.90;;;;;;5051965;28;20052;-64
2022/05/24 10:48:07;;;;;;;5.50;3.78;;;14.50;99.90;;;;;;5064242;28;20044;-63
2022/05/24 10:50:47;;;;;;;9.98;4.50;;;14.30;99.90;;;;;;5053402;28;20055;-62
2022/05/24 10:53:25;;;;;;;11.02;5.20;;;14.00;99.90;;;;;;5061943;28;20048;-63
2022/05/24 10:56:03;;;;;;;8.65;4.70;;;13.40;99.90;;;;;;5046719;28;20536;-64
2022/05/24 10:58:34;;;;;;;9.23;4.75;;;13.40;99.90;;;;;;5049006;28;20032;-63
2022/05/24 11:01:24;;;;;;;7.55;4.22;;;13.90;99.90;;;;;;5043008;28;20073;-63
2022/05/24 11:03:56;;;;;;;3.30;1.50;;;14.10;99.90;;;;;;5037622;28;20052;-64
2022/05/24 11:06:22;;;;;;;3.25;0.98;;;;;;;;;;5033189;28;20163;-64
2022/05/24 11:08:55;;;;;;;2.72;1.02;;;13.60;99.90;;;;;;5040073;28;20131;-63
2022/05/24 11:47:33;;;;;;;5.40;2.45;;;14.30;99.90;;;;;;5047352;28;20072;-64
2022/05/24 11:50:01;;;;;;;7.65;2.45;;;14.30;99.90;;;;;;5029949;28;20045;-64
2022/05/24 11:52:45;;;;;;;5.88;1.83;;;14.00;99.90;;;;;;5028837;28;20056;-65
2022/05/24 11:55:37;;;;;;;4.85;1.80;;;14.60;99.90;;;;;;5028836;28;20037;-65
2022/05/24 11:58:20;;;;;;;5.43;2.40;;;15.00;99.90;;;;;;5030630;28;20053;-64
2022/05/24 12:01:17;;;;;;;5.25;1.95;;;15.10;99.90;;;;;;5026774;28;20091;-65
2022/05/24 12:10:11;;;;;;;11.57;2.55;;;14.60;99.90;;;;;;4978128;28;20081;-65
2022/05/24 12:12:49;;;;;;;5.45;2.10;;;14.90;99.90;;;;;;5032004;28;20505;-65
2022/05/24 12:15:30;;;;;;;5.57;1.90;;;15.30;99.90;;;;;;5032187;28;20505;-65
2022/05/24 12:17:58;;;;;;;6.10;2.50;;;15.00;99.90;;;;;;5032342;28;20042;-65
2022/05/24 12:20:34;;;;;;;7.32;2.00;;;;;;;;;;5030918;28;20072;-64
2022/05/24 12:23:09;;;;;;;9.77;2.35;;;;;;;;;;5031869;28;20034;-65
2022/05/24 12:25:50;;;;;;;7.30;1.85;;;;;;;;;;5030649;28;20120;-66
2022/05/24 12:28:17;;;;;;;6.43;1.90;;;;;;;;;;5030299;28;20075;-65
2022/05/24 12:30:44;;;;;;;4.60;1.60;;;;;;;;;;5032688;28;20148;-65
2022/05/24 12:33:25;;;;;;;6.22;1.52;;;;;;;;;;5030734;28;20553;-64
2022/05/24 12:36:00;;;;;;;4.35;1.25;;;;;;;;;;5029583;28;20049;-63
2022/05/24 12:38:27;;;;;;;6.32;1.45;;;;;;;;;;5030749;28;20115;-64
2022/05/24 12:41:29;;;;;;;3.78;1.55;;;;;;;;;;5014399;28;20080;-64
2022/05/24 12:44:12;;;;;;;5.13;1.35;;;;;;;;;;4952182;29;20036;-63
2022/05/24 12:46:38;;;;;;;3.88;1.33;;;;;;;;;;5005235;28;20061;-64
2022/05/24 12:49:07;;;;;;;5.40;1.60;;;;;;;;;;5030843;28;20057;-63
2022/05/24 12:51:34;;;;;;;5.75;1.73;;;;;;;;;;5031469;28;20061;-63
2022/05/24 12:54:30;;;;;;;4.10;1.60;;;14.30;99.90;;;;;;5028365;28;20041;-63
2022/05/24 12:57:01;;;;;;;5.53;1.73;;;14.90;99.90;;;;;;5015010;28;20187;-63
2022/05/24 12:59:37;;;;;;;9.02;2.28;;;14.80;99.90;;;;;;5032353;28;20064;-63
2022/05/24 13:02:31;;;;;;;5.80;1.90;;;15.10;99.90;;;;;;5030863;28;20049;-63
2022/05/24 13:05:01;;;;;;;7.38;2.22;;;15.10;99.90;;;;;;5030856;28;20038;-63
2022/05/24 13:07:46;;;;;;;4.45;1.95;;;15.20;99.90;;;;;;5031004;28;20108;-63
2022/05/24 13:10:21;;;;;;;;;;;15.20;99.90;;;;;;5029903;28;20056;-63
2022/05/24 13:13:00;;;;;;;6.68;2.00;;;15.40;99.90;;;;;;5032413;28;19916;-63
2022/05/24 13:15:39;;;;;;;6.90;2.30;;;15.40;99.90;;;;;;5030071;28;20048;-63
2022/05/24 13:18:12;;;;;;;4.53;2.20;;;15.60;99.90;;;;;;5032019;28;20103;-62
2022/05/24 13:20:51;;;;;;;4.85;2.13;;;15.60;99.90;;;;;;5031853;28;20037;-63
2022/05/24 13:23:16;;;;;;;7.75;2.65;;;15.70;99.90;;;;;;5014194;28;20125;-62
2022/05/24 13:26:11;;;;;;;5.22;2.15;;;15.50;99.90;;;;;;5030712;28;20116;-62
2022/05/24 13:28:45;;;;;;;6.47;2.00;;;15.20;99.90;;;;;;5030383;28;20049;-63
2022/05/24 13:34:20;;;;;;;4.88;1.73;;;15.30;99.90;;;;;;5000538;28;20011;-63
2022/05/24 13:36:48;;;;;;;5.28;1.80;;;15.40;99.90;;;;;;5030874;28;20236;-62
2022/05/24 13:39:24;;;;;;;6.72;2.15;;;15.50;99.90;;;;;;5031744;28;20056;-62
2022/05/24 13:42:03;;;;;;;5.53;1.85;;;15.40;99.90;;;;;;5031443;28;20029;-62
2022/05/24 13:45:13;;;;;;;4.88;2.00;;;15.40;99.90;;;;;;5030487;28;20494;-62
2022/05/24 13:47:41;;;;;;;9.23;4.95;;;15.30;99.90;;;;;;5034340;28;20179;-63
2022/05/24 13:50:19;;;;;;;15.55;4.95;;;;;;;;;;5049197;28;20482;-61
2022/05/24 13:52:53;;;;;;;10.20;3.38;;;15.30;99.90;;;;;;5030656;28;20171;-77
2022/05/24 13:55:25;;;;;;;5.78;2.05;;;15.20;99.90;;;;;;5030257;28;20060;-77
2022/05/24 13:58:08;;;;;;;5.88;2.22;;;15.50;99.90;;;;;;5024237;28;20100;-75
2022/05/24 14:00:39;;;;;;;5.72;2.78;;;;;;;;;;5029061;28;20042;-75
2022/05/24 14:03:28;;;;;;;3.75;1.45;;;17.60;99.90;;;;;;5011859;28;20041;-74
2022/05/24 14:06:10;;;;;;;5.50;2.00;;;;;;;;;;5023630;28;20037;-75
2022/05/24 14:08:37;;;;;;;4.63;1.80;;;16.00;99.90;;;;;;5040069;28;20052;-76
2022/05/24 14:11:03;;;;;;;4.60;1.50;;;;;;;;;;5020041;28;20135;-68
2022/05/24 14:13:29;;;;;;;5.03;1.85;;;;;;;;;;5043302;28;20037;-80
2022/05/24 14:15:58;;;;;;;5.53;1.98;;;;;;;;;;5036582;28;20068;-79
2022/05/24 14:18:24;;;;;;;6.13;1.70;;;;;;;;;;5053727;28;20094;-80
2022/05/24 14:20:50;;;;;;;7.15;1.80;;;;;;;;;;5043815;28;20775;-81
2022/05/24 14:23:18;;;;;;;5.60;2.47;;;15.80;99.90;;;;;;5035221;28;20037;-81
2022/05/24 14:25:47;;;;;;;7.07;2.70;;;;;;;;;;5033975;28;20045;-81
2022/05/24 14:28:13;;;;;;;7.85;2.60;;;;;;;;;;5048207;28;20111;-82
2022/05/24 14:30:39;;;;;;;8.73;2.75;;;;;;;;;;5048018;28;20072;-81
2022/05/24 14:33:05;;;;;;;5.05;2.80;;;;;;;;;;5033371;28;20053;-81
2022/05/24 14:35:31;;;;;;;5.82;2.80;;;;;;;;;;5033689;28;20092;-82
2022/05/24 14:37:58;;;;;;;9.52;3.00;;;16.00;99.90;;;;;;5033752;28;20037;-81
2022/05/24 14:40:24;;;;;;;7.03;2.90;;;16.10;99.90;;;;;;5013439;28;20056;-82
2022/05/24 14:42:51;;;;;;;6.80;3.38;;;16.20;99.90;;;;;;5047468;28;20044;-81
2022/05/24 14:45:18;;;;;;;7.13;2.90;;;16.20;99.90;;;;;;5033888;28;20790;-81